BCN weather

Barcelona International Airport
Barcelona, Catalonia, Spain

Public forecast

Using degrees Celsius for public forecast. Weather courtesy of forecast.io.

METAR (pilot weather report)

Retrieved 2018/12/13 03:30 UTC (26 minutes ago):

LEBL 130330Z 34005KT 9000 FEW018 SCT050 10/07 Q1011 NOSIG

TAF (pilot weather forecast)

Forecast is more than 12 hours old.

Retrieved 2018/12/12 00:27 UTC (1 day ago):

TAF LEBL 122300Z 1300/1324 35006KT 9999 FEW025 TX13/1312Z TN09/1306Z PROB40 TEMPO 1311/1324 4000 RA BKN025